Alvo, NE

11:13 AM CDT on August 23, 2019 (GMT -0500)
Wabash | | Change Station
Active Advisory: Flood Warning

Elev 1194 ft 40.89 °N, 96.26 °W | Updated 20 seconds ago

Partly Cloudy
Partly Cloudy
76.3 °F
Feels Like 78 °F
N
2.9
Wind Variable Wind from SW
Gusts 3.4 mph

Today
High -- | Low -- °F
--% Chance of Precip.
Yesterday
High -- | Low -- °F
Precip. -- in
Pressure 30.07 in
Visibility 10.0 miles
Clouds Few 2000 ft
Overcast 3100 ft
Heat Index 78 °F
Dew Point 67 °F
Humidity 73%
Rainfall 0.00 in
Snow Depth Not available.
6:43 AM 8:12 PM
Waning Gibbous, 50% visible
METAR KLNK 231554Z 16010KT 10SM FEW020 OVC031 24/19 A3010 RMK AO2 SLP183 T02440189
Pressure 30.07 in
Visibility 10.0 miles
Clouds Few 2000 ft
Overcast 3100 ft
Heat Index 78 °F
Dew Point 67 °F
Humidity 73%
Rainfall 0.00 in
Snow Depth Not available.
6:43 AM 8:12 PM
Waning Gibbous, 50% visible
METAR KLNK 231554Z 16010KT 10SM FEW020 OVC031 24/19 A3010 RMK AO2 SLP183 T02440189

Get Your Daily Forecast Email!

Thanks for signing up!

Be on the lookout for a verification email in your inbox.

You'll start receiving severe weather alerts in your inbox..

×

10-Day Weather Forecast

Almanac

Astronomy

Aug. 23, 2019 Rise Set
Actual Time
Civil Twilight
Nautical Twilight
Astronomical Twilight
Moon
Length of Visible Light
Length of Day
Tomorrow will be .
, % of the Moon is Illuminated

Today's Extremes

State Highs State Lows

Community

WunderPhotos

Category 6

Welcome to Category 6. This is the collective home for Weather Underground's featured writeups by Dr. Jeff Masters (right), Bob Henson (left), Chris Burt, and other regular contributors.

Nearby

Air Quality

  Air Quality AQ Index Pollutant
Not available.

Snow Depth

Station Depth Elevation

Earthquake Activity

City Distance Mag. Time & Date
Minimum magnitude displayed is 2.5.

Coastal Water Temperatures

Place Temperature

Stations

Nearby Weather Stations

Station Location Temp. Windchill Dew Point Humidity Wind Precip. Elev Updated Type
                   

Watches & Warnings

Flood Warning
Issued: 9:10 AM CDT Aug. 23, 2019 – National Weather Service

The Flood Warning continues for
the Missouri River at Plattsmouth.
* At 8:15 am Friday the stage was 26.0 feet... or 0.0 feet above
flood stage.
* Flood stage is 26.0 feet.
* Minor flooding is occurring and minor flooding is forecast.



Lat... Lon 4106 9591 4107 9574 4078 9572 4078 9587
      4092 9585